createdAt,value
2022-11-13T00:01:16.581Z,6.73
2022-11-13T00:04:22.428Z,6.70
2022-11-13T00:07:28.846Z,6.66
2022-11-13T00:10:34.943Z,6.62
2022-11-13T00:13:41.306Z,6.62
2022-11-13T00:16:47.063Z,6.47
2022-11-13T00:19:53.052Z,6.36
2022-11-13T00:22:58.866Z,6.24
2022-11-13T00:26:09.861Z,6.26
2022-11-13T00:29:15.995Z,6.35
2022-11-13T00:32:22.008Z,6.27
2022-11-13T00:35:27.777Z,6.15
2022-11-13T00:38:33.944Z,5.97
2022-11-13T00:41:40.247Z,5.95
2022-11-13T00:44:46.269Z,5.76
2022-11-13T00:47:51.985Z,5.74
2022-11-13T00:50:57.730Z,5.73
2022-11-13T00:54:03.643Z,5.70
2022-11-13T00:57:09.468Z,5.70
2022-11-13T01:00:15.429Z,5.72
2022-11-13T01:03:21.296Z,5.69
2022-11-13T01:06:27.620Z,5.72
2022-11-13T01:09:33.640Z,5.85
2022-11-13T01:12:39.839Z,5.95
2022-11-13T01:15:45.658Z,6.04
2022-11-13T01:18:53.791Z,6.05
2022-11-13T01:21:59.700Z,6.09
2022-11-13T01:25:05.943Z,6.16
2022-11-13T01:28:11.657Z,6.20
2022-11-13T01:31:19.701Z,6.28
2022-11-13T01:34:25.631Z,6.29
2022-11-13T01:37:31.653Z,6.34
2022-11-13T01:40:44.782Z,6.41
2022-11-13T01:43:51.143Z,6.44
2022-11-13T01:46:57.134Z,6.38
2022-11-13T01:50:03.748Z,6.43
2022-11-13T01:53:09.716Z,6.48
2022-11-13T01:56:17.068Z,6.49
2022-11-13T01:59:24.522Z,6.65
2022-11-13T02:02:30.582Z,6.67
2022-11-13T02:05:36.488Z,6.64
2022-11-13T02:08:43.972Z,6.72
2022-11-13T02:11:49.807Z,6.70
2022-11-13T02:14:57.677Z,6.80
2022-11-13T02:18:03.675Z,6.78
2022-11-13T02:21:20.919Z,6.86
2022-11-13T02:24:36.821Z,6.85
2022-11-13T02:27:45.579Z,6.92
2022-11-13T02:30:51.228Z,6.93
2022-11-13T02:33:56.922Z,6.91
2022-11-13T02:37:02.578Z,6.96
2022-11-13T02:40:08.620Z,7.02
2022-11-13T02:43:14.755Z,6.99
2022-11-13T02:46:20.695Z,7.00
2022-11-13T02:49:26.408Z,7.10
2022-11-13T02:52:32.274Z,7.11
2022-11-13T02:55:38.438Z,7.07
2022-11-13T02:58:44.273Z,7.05
2022-11-13T03:01:49.914Z,6.94
2022-11-13T03:05:13.065Z,6.90
2022-11-13T03:08:20.048Z,6.96
2022-11-13T03:11:26.372Z,6.99
2022-11-13T03:14:31.939Z,7.04
2022-11-13T03:17:37.729Z,7.05
2022-11-13T03:20:44.055Z,7.08
2022-11-13T03:23:51.500Z,7.15
2022-11-13T03:26:57.287Z,7.13
2022-11-13T03:30:03.724Z,7.18
2022-11-13T03:33:10.123Z,7.25
2022-11-13T03:36:16.060Z,7.22
2022-11-13T03:39:22.807Z,7.28
2022-11-13T03:42:29.750Z,7.31
2022-11-13T03:45:35.756Z,7.35
2022-11-13T03:48:41.668Z,7.41
2022-11-13T03:51:47.571Z,7.38
2022-11-13T03:55:33.673Z,7.47
2022-11-13T03:58:40.435Z,7.45
2022-11-13T04:01:46.715Z,7.48
2022-11-13T04:04:52.422Z,7.50
2022-11-13T04:07:58.192Z,7.52
2022-11-13T04:11:08.259Z,7.54
2022-11-13T04:14:14.599Z,7.60
2022-11-13T04:17:20.748Z,7.60
2022-11-13T04:20:28.100Z,7.66
2022-11-13T04:23:34.114Z,7.67
2022-11-13T04:26:39.966Z,7.73
2022-11-13T04:29:46.096Z,7.75
2022-11-13T04:32:51.782Z,7.78
2022-11-13T04:35:57.823Z,7.82
2022-11-13T04:39:03.633Z,7.88
2022-11-13T04:42:28.906Z,7.93
2022-11-13T04:45:35.121Z,7.80
2022-11-13T04:48:41.039Z,7.82
2022-11-13T04:51:47.284Z,7.85
2022-11-13T04:54:53.184Z,7.91
2022-11-13T04:57:59.266Z,7.95
2022-11-13T05:01:04.998Z,8.00
2022-11-13T05:04:15.101Z,8.00
2022-11-13T05:07:23.823Z,8.03
2022-11-13T05:10:29.742Z,8.13
2022-11-13T05:13:36.546Z,8.19
2022-11-13T05:16:42.850Z,8.22
2022-11-13T05:19:48.913Z,8.16
2022-11-13T05:22:54.821Z,8.18
2022-11-13T05:26:01.537Z,8.21
2022-11-13T05:29:07.431Z,8.15
2022-11-13T05:32:13.671Z,8.14
2022-11-13T05:35:19.319Z,8.25
2022-11-13T05:38:25.405Z,8.40
2022-11-13T05:41:31.355Z,8.39
2022-11-13T05:44:37.481Z,8.32
2022-11-13T05:47:43.453Z,8.33
2022-11-13T05:50:49.524Z,8.36
2022-11-13T05:53:55.343Z,8.41
2022-11-13T05:57:01.516Z,8.47
2022-11-13T06:00:07.973Z,8.51
2022-11-13T06:03:14.294Z,8.64
2022-11-13T06:06:23.213Z,8.65
2022-11-13T06:09:31.065Z,8.75
2022-11-13T06:12:36.779Z,8.78
2022-11-13T06:15:44.558Z,8.77
2022-11-13T06:18:50.921Z,8.79
2022-11-13T06:21:56.624Z,8.78
2022-11-13T06:25:02.460Z,8.85
2022-11-13T06:28:08.722Z,8.80
2022-11-13T06:31:16.290Z,8.91
2022-11-13T06:34:22.268Z,8.93
2022-11-13T06:37:31.466Z,8.94
2022-11-13T06:40:41.452Z,9.01
2022-11-13T06:43:48.728Z,8.96
2022-11-13T06:46:55.655Z,8.95
2022-11-13T06:50:02.193Z,8.96
2022-11-13T06:53:08.036Z,8.93
2022-11-13T06:56:20.373Z,9.00
2022-11-13T07:02:51.080Z,9.04
2022-11-13T07:05:57.139Z,9.08
2022-11-13T07:09:02.880Z,9.13
2022-11-13T07:12:08.691Z,9.11
2022-11-13T07:15:16.852Z,9.22
2022-11-13T07:18:24.243Z,9.29
2022-11-13T07:21:32.241Z,9.38
2022-11-13T07:24:38.232Z,9.41
2022-11-13T07:27:47.375Z,9.51
2022-11-13T07:30:53.814Z,9.47
2022-11-13T07:33:59.738Z,9.47
2022-11-13T07:37:07.004Z,9.43
2022-11-13T07:40:13.310Z,9.46
2022-11-13T07:43:19.536Z,9.53
2022-11-13T07:46:25.709Z,9.59
2022-11-13T07:49:31.583Z,9.70
2022-11-13T07:52:40.470Z,9.68
2022-11-13T07:55:46.523Z,9.70
2022-11-13T07:58:52.611Z,9.74
2022-11-13T08:01:58.627Z,9.89
2022-11-13T08:05:04.532Z,10.02
2022-11-13T08:08:14.048Z,10.07
2022-11-13T08:11:20.416Z,10.15
2022-11-13T08:14:26.475Z,10.11
2022-11-13T08:17:32.209Z,10.31
2022-11-13T08:20:38.083Z,10.17
2022-11-13T08:23:44.124Z,10.17
2022-11-13T08:26:50.074Z,10.25
2022-11-13T08:29:55.920Z,10.37
2022-11-13T08:33:03.163Z,10.49
2022-11-13T08:36:10.384Z,10.43
2022-11-13T08:39:16.657Z,10.49
2022-11-13T08:42:22.632Z,10.62
2022-11-13T08:45:29.657Z,10.64
2022-11-13T08:48:35.508Z,10.81
2022-11-13T08:51:41.364Z,10.78
2022-11-13T08:54:47.511Z,10.87
2022-11-13T08:57:53.949Z,10.93
2022-11-13T09:01:00.468Z,10.88
2022-11-13T09:04:06.360Z,10.98
2022-11-13T09:07:15.325Z,11.03
2022-11-13T09:10:21.479Z,11.21
2022-11-13T09:13:27.371Z,11.19
2022-11-13T09:16:33.469Z,11.23
2022-11-13T09:19:39.566Z,11.18
2022-11-13T09:22:45.932Z,11.27
2022-11-13T09:25:51.715Z,11.43
2022-11-13T09:28:57.795Z,11.36
2022-11-13T09:32:03.563Z,11.64
2022-11-13T09:35:09.807Z,11.79
2022-11-13T09:38:16.388Z,11.66
2022-11-13T09:41:26.216Z,11.67
2022-11-13T09:44:35.853Z,12.14
2022-11-13T09:47:44.728Z,12.87
2022-11-13T09:50:53.867Z,13.18
2022-11-13T09:54:03.131Z,13.30
2022-11-13T09:57:15.229Z,13.85
2022-11-13T10:00:21.994Z,13.70
2022-11-13T10:03:59.980Z,14.20
2022-11-13T10:07:05.941Z,14.40
2022-11-13T10:10:16.562Z,14.48
2022-11-13T10:13:25.690Z,14.57
2022-11-13T10:16:46.227Z,14.91
2022-11-13T10:20:00.379Z,15.31
2022-11-13T10:23:24.896Z,15.16
2022-11-13T10:26:30.701Z,14.69
2022-11-13T10:29:37.242Z,15.30
2022-11-13T10:32:43.642Z,14.22
2022-11-13T10:36:15.288Z,14.34
2022-11-13T10:39:21.166Z,13.91
2022-11-13T10:42:32.631Z,14.47
2022-11-13T10:45:40.266Z,14.58
2022-11-13T10:48:46.211Z,14.97
2022-11-13T10:51:59.613Z,15.23
2022-11-13T10:55:14.744Z,15.31
2022-11-13T10:58:20.874Z,15.42
2022-11-13T11:01:27.000Z,14.83
2022-11-13T11:04:32.786Z,15.20
2022-11-13T11:07:41.971Z,14.78
2022-11-13T11:11:13.819Z,14.91
2022-11-13T11:14:35.536Z,14.83
2022-11-13T11:17:47.202Z,14.94
2022-11-13T11:20:58.977Z,15.13
2022-11-13T11:24:08.804Z,14.82
2022-11-13T11:27:16.978Z,15.00
2022-11-13T11:30:29.945Z,15.26
2022-11-13T11:33:45.206Z,14.97
2022-11-13T11:37:06.300Z,15.09
2022-11-13T11:40:20.594Z,14.80
2022-11-13T11:43:42.674Z,14.11
2022-11-13T11:46:48.687Z,14.33
2022-11-13T11:49:55.052Z,14.44
2022-11-13T11:53:24.532Z,14.79
2022-11-13T11:56:57.008Z,14.62
2022-11-13T12:00:10.426Z,14.59
2022-11-13T12:03:31.707Z,14.63
2022-11-13T12:06:43.761Z,14.70
2022-11-13T12:09:52.383Z,14.85
2022-11-13T12:13:14.217Z,14.92
2022-11-13T12:16:30.416Z,14.71
2022-11-13T12:19:57.513Z,14.69
2022-11-13T12:23:23.263Z,14.45
2022-11-13T12:26:32.639Z,14.58
2022-11-13T12:30:01.693Z,14.71
2022-11-13T12:33:27.146Z,14.59
2022-11-13T12:36:33.748Z,14.58
2022-11-13T12:39:56.984Z,14.42
2022-11-13T12:43:03.721Z,14.38
2022-11-13T12:46:10.839Z,14.31
2022-11-13T12:49:26.495Z,14.31
2022-11-13T12:52:35.385Z,14.34
2022-11-13T12:55:41.680Z,14.12
2022-11-13T12:59:23.545Z,14.00
2022-11-13T13:02:32.395Z,13.97
2022-11-13T13:05:57.052Z,14.05
2022-11-13T13:09:13.678Z,13.78
2022-11-13T13:12:38.293Z,13.75
2022-11-13T13:15:49.192Z,13.63
2022-11-13T13:19:06.239Z,13.65
2022-11-13T13:22:24.299Z,13.50
2022-11-13T13:25:30.378Z,13.37
2022-11-13T13:28:39.031Z,13.33
2022-11-13T13:31:49.861Z,13.21
2022-11-13T13:34:58.633Z,13.10
2022-11-13T13:38:23.149Z,13.01
2022-11-13T13:41:41.027Z,12.84
2022-11-13T13:44:57.454Z,12.90
2022-11-13T13:48:09.225Z,12.77
2022-11-13T13:51:28.399Z,12.67
2022-11-13T13:54:35.027Z,12.78
2022-11-13T13:57:45.205Z,12.55
2022-11-13T14:01:17.182Z,12.54
2022-11-13T14:04:24.193Z,12.41
2022-11-13T14:07:30.937Z,12.45
2022-11-13T14:10:36.928Z,12.29
2022-11-13T14:13:42.686Z,12.27
2022-11-13T14:16:53.048Z,12.16
2022-11-13T14:20:01.483Z,12.10
2022-11-13T14:23:09.753Z,12.07
2022-11-13T14:26:15.850Z,12.05
2022-11-13T14:29:24.153Z,12.03
2022-11-13T14:32:34.776Z,11.86
2022-11-13T14:35:41.202Z,11.89
2022-11-13T14:38:51.976Z,11.71
2022-11-13T14:41:59.455Z,11.61
2022-11-13T14:45:14.539Z,11.58
2022-11-13T14:48:25.840Z,11.49
2022-11-13T14:51:33.363Z,11.41
2022-11-13T14:55:13.114Z,11.45
2022-11-13T14:58:11.928Z,11.31
2022-11-13T15:01:21.509Z,11.14
2022-11-13T15:04:28.653Z,11.00
2022-11-13T15:07:38.992Z,10.87
2022-11-13T15:10:45.051Z,10.73
2022-11-13T15:13:51.176Z,10.61
2022-11-13T15:16:59.147Z,10.52
2022-11-13T15:21:51.019Z,10.48
2022-11-13T15:25:19.588Z,10.42
2022-11-13T15:28:25.811Z,10.33
2022-11-13T15:31:35.505Z,10.18
2022-11-13T15:34:43.916Z,10.06
2022-11-13T15:37:50.550Z,10.07
2022-11-13T15:40:57.019Z,10.04
2022-11-13T15:44:10.553Z,9.88
2022-11-13T15:47:36.995Z,9.67
2022-11-13T15:50:43.052Z,9.66
2022-11-13T15:53:54.755Z,9.66
2022-11-13T15:57:00.777Z,9.49
2022-11-13T16:00:14.575Z,9.45
2022-11-13T16:03:20.751Z,9.36
2022-11-13T16:06:28.286Z,9.16
2022-11-13T16:09:34.577Z,9.20
2022-11-13T16:12:42.331Z,9.10
2022-11-13T16:15:49.586Z,8.93
2022-11-13T16:19:00.203Z,8.93
2022-11-13T16:22:18.185Z,8.82
2022-11-13T16:25:24.660Z,8.73
2022-11-13T16:28:34.145Z,8.63
2022-11-13T16:31:43.597Z,8.55
2022-11-13T16:34:52.240Z,8.51
2022-11-13T16:38:00.386Z,8.38
2022-11-13T16:41:11.094Z,8.30
2022-11-13T16:44:17.010Z,8.17
2022-11-13T16:47:26.154Z,8.17
2022-11-13T16:50:34.072Z,7.99
2022-11-13T16:53:40.149Z,8.00
2022-11-13T16:56:46.587Z,7.97
2022-11-13T16:59:52.523Z,7.87
2022-11-13T17:02:58.906Z,7.88
2022-11-13T17:06:05.171Z,7.74
2022-11-13T17:09:11.900Z,7.65
2022-11-13T17:12:21.888Z,7.53
2022-11-13T17:15:29.386Z,7.55
2022-11-13T17:18:37.810Z,7.55
2022-11-13T17:21:44.887Z,7.46
2022-11-13T17:24:51.389Z,7.40
2022-11-13T17:27:57.552Z,7.36
2022-11-13T17:31:08.878Z,7.33
2022-11-13T17:34:15.275Z,7.21
2022-11-13T17:37:25.067Z,7.10
2022-11-13T17:40:32.609Z,7.17
2022-11-13T17:43:40.389Z,7.10
2022-11-13T17:46:47.815Z,7.03
2022-11-13T17:50:02.429Z,7.02
2022-11-13T17:53:11.624Z,6.82
2022-11-13T17:56:20.378Z,6.94
2022-11-13T17:59:26.221Z,6.75
2022-11-13T18:02:32.176Z,6.60
2022-11-13T18:05:40.831Z,6.67
2022-11-13T18:08:47.427Z,6.59
2022-11-13T18:11:53.654Z,6.56
2022-11-13T18:14:59.899Z,6.58
2022-11-13T18:18:09.544Z,6.54
2022-11-13T18:21:23.161Z,6.50
2022-11-13T18:24:30.258Z,6.51
2022-11-13T18:27:37.304Z,6.43
2022-11-13T18:30:45.042Z,6.16
2022-11-13T18:33:51.934Z,6.41
2022-11-13T18:36:59.231Z,6.27
2022-11-13T18:40:06.155Z,6.06
2022-11-13T18:43:11.866Z,6.04
2022-11-13T18:46:20.439Z,6.07
2022-11-13T18:49:26.361Z,6.14
2022-11-13T18:52:33.704Z,5.91
2022-11-13T18:55:39.956Z,6.07
2022-11-13T18:58:50.360Z,6.03
2022-11-13T19:01:56.760Z,5.85
2022-11-13T19:05:02.746Z,5.96
2022-11-13T19:08:08.890Z,5.82
2022-11-13T19:11:18.038Z,5.80
2022-11-13T19:14:23.941Z,5.88
2022-11-13T19:17:30.505Z,5.86
2022-11-13T19:20:39.476Z,5.68
2022-11-13T19:23:45.936Z,5.80
2022-11-13T19:26:51.837Z,5.72
2022-11-13T19:29:59.015Z,5.64
2022-11-13T19:33:05.408Z,5.49
2022-11-13T19:36:17.657Z,5.48
2022-11-13T19:39:23.907Z,5.51
2022-11-13T19:42:29.911Z,5.25
2022-11-13T19:45:36.530Z,5.41
2022-11-13T19:48:44.641Z,5.41
2022-11-13T19:51:50.697Z,5.36
2022-11-13T19:54:57.080Z,5.30
2022-11-13T19:58:03.085Z,5.38
2022-11-13T20:01:11.623Z,5.23
2022-11-13T20:04:17.907Z,5.39
2022-11-13T20:07:24.057Z,5.36
2022-11-13T20:10:31.473Z,5.20
2022-11-13T20:13:39.474Z,5.07
2022-11-13T20:16:45.499Z,5.04
2022-11-13T20:19:51.769Z,4.97
2022-11-13T20:22:58.512Z,4.96
2022-11-13T20:26:07.946Z,4.91
2022-11-13T20:29:14.255Z,4.90
2022-11-13T20:32:20.786Z,4.81
2022-11-13T20:35:26.844Z,4.96
2022-11-13T20:38:32.894Z,4.81
2022-11-13T20:41:38.891Z,4.72
2022-11-13T20:44:44.807Z,4.72
2022-11-13T20:47:53.786Z,4.65
2022-11-13T20:51:06.528Z,4.54
2022-11-13T20:54:12.735Z,4.58
2022-11-13T20:57:21.492Z,4.54
2022-11-13T21:00:27.558Z,4.50
2022-11-13T21:03:40.012Z,4.56
2022-11-13T21:06:47.783Z,4.49
2022-11-13T21:09:53.756Z,4.49
2022-11-13T21:13:00.085Z,4.47
2022-11-13T21:16:08.365Z,4.43
2022-11-13T21:19:14.361Z,4.23
2022-11-13T21:22:20.327Z,4.33
2022-11-13T21:25:26.605Z,4.23
2022-11-13T21:28:33.962Z,4.14
2022-11-13T21:31:40.047Z,4.10
2022-11-13T21:34:46.719Z,4.00
2022-11-13T21:37:53.192Z,3.91
2022-11-13T21:41:19.030Z,3.95
2022-11-13T21:44:25.079Z,3.94
2022-11-13T21:47:31.159Z,3.88
2022-11-13T21:50:37.087Z,3.83
2022-11-13T21:53:43.333Z,3.81
2022-11-13T21:56:49.525Z,3.69
2022-11-13T21:59:55.774Z,3.70
2022-11-13T22:03:02.184Z,3.67
2022-11-13T22:06:22.323Z,3.66
2022-11-13T22:09:28.540Z,3.58
2022-11-13T22:12:34.892Z,3.64
2022-11-13T22:15:41.136Z,3.58
2022-11-13T22:18:47.567Z,3.67
2022-11-13T22:21:54.362Z,3.64
2022-11-13T22:25:00.663Z,3.66
2022-11-13T22:28:06.704Z,3.53
2022-11-13T22:31:32.263Z,3.46
2022-11-13T22:34:38.162Z,3.47
2022-11-13T22:37:44.248Z,3.43
2022-11-13T22:40:50.522Z,3.17
2022-11-13T22:43:59.948Z,3.17
2022-11-13T22:47:06.196Z,3.11
2022-11-13T22:50:12.373Z,3.03
2022-11-13T22:53:18.690Z,3.02
2022-11-13T22:56:28.705Z,2.89
2022-11-13T22:59:34.786Z,3.05
2022-11-13T23:02:46.954Z,3.01
2022-11-13T23:05:53.051Z,2.89
2022-11-13T23:09:00.461Z,2.88
2022-11-13T23:12:06.773Z,2.93
2022-11-13T23:15:13.045Z,2.74
2022-11-13T23:18:19.006Z,2.81
2022-11-13T23:21:26.682Z,2.84
2022-11-13T23:24:33.510Z,2.76
2022-11-13T23:27:39.655Z,2.85
2022-11-13T23:30:46.065Z,2.76
2022-11-13T23:33:52.324Z,2.58
2022-11-13T23:36:58.456Z,2.68
2022-11-13T23:40:04.980Z,2.63
2022-11-13T23:43:11.647Z,2.62
2022-11-13T23:46:17.617Z,2.51
2022-11-13T23:49:24.041Z,2.54
2022-11-13T23:52:29.876Z,2.52
2022-11-13T23:55:38.196Z,2.38
2022-11-13T23:58:44.156Z,2.60
